sensor_id;sensor_type;location;lat;lon;timestamp;P1;durP1;ratioP1;P2;durP2;ratioP2
65533;SDS011;53640;55.838;37.184;2022-12-05T00:03:57;12.57;;;5.95;;
65533;SDS011;53640;55.838;37.184;2022-12-05T00:06:25;13.52;;;6.63;;
65533;SDS011;53640;55.838;37.184;2022-12-05T00:08:53;12.60;;;5.40;;
65533;SDS011;53640;55.838;37.184;2022-12-05T00:11:24;12.80;;;5.70;;
65533;SDS011;53640;55.838;37.184;2022-12-05T00:13:53;11.70;;;5.22;;
65533;SDS011;53640;55.838;37.184;2022-12-05T00:16:22;19.52;;;5.72;;
65533;SDS011;53640;55.838;37.184;2022-12-05T00:18:49;10.77;;;5.28;;
65533;SDS011;53640;55.838;37.184;2022-12-05T00:21:21;13.52;;;5.68;;
65533;SDS011;53640;55.838;37.184;2022-12-05T00:26:16;13.18;;;5.53;;
65533;SDS011;53640;55.838;37.184;2022-12-05T00:28:43;12.13;;;5.85;;
65533;SDS011;53640;55.838;37.184;2022-12-05T00:31:10;13.07;;;5.65;;
65533;SDS011;53640;55.838;37.184;2022-12-05T00:33:39;11.68;;;5.78;;
65533;SDS011;53640;55.838;37.184;2022-12-05T00:36:07;11.27;;;5.82;;
65533;SDS011;53640;55.838;37.184;2022-12-05T00:38:35;9.95;;;5.45;;
65533;SDS011;53640;55.838;37.184;2022-12-05T00:41:05;11.80;;;5.65;;
65533;SDS011;53640;55.838;37.184;2022-12-05T00:43:34;16.27;;;6.65;;
65533;SDS011;53640;55.838;37.184;2022-12-05T00:46:04;14.68;;;6.05;;
65533;SDS011;53640;55.838;37.184;2022-12-05T00:48:33;15.00;;;6.60;;
65533;SDS011;53640;55.838;37.184;2022-12-05T00:51:03;14.90;;;6.82;;
65533;SDS011;53640;55.838;37.184;2022-12-05T00:53:32;13.32;;;5.97;;
65533;SDS011;53640;55.838;37.184;2022-12-05T00:56:03;14.20;;;5.95;;
65533;SDS011;53640;55.838;37.184;2022-12-05T00:58:31;11.47;;;6.13;;
65533;SDS011;53640;55.838;37.184;2022-12-05T01:01:04;12.02;;;6.30;;
65533;SDS011;53640;55.838;37.184;2022-12-05T01:03:34;13.10;;;5.47;;
65533;SDS011;53640;55.838;37.184;2022-12-05T01:06:00;14.95;;;5.38;;
65533;SDS011;53640;55.838;37.184;2022-12-05T01:08:27;10.82;;;5.43;;
65533;SDS011;53640;55.838;37.184;2022-12-05T01:10:54;16.55;;;5.45;;
65533;SDS011;53640;55.838;37.184;2022-12-05T01:13:23;18.02;;;6.15;;
65533;SDS011;53640;55.838;37.184;2022-12-05T01:15:50;10.18;;;5.05;;
65533;SDS011;53640;55.838;37.184;2022-12-05T01:18:18;21.17;;;6.82;;
65533;SDS011;53640;55.838;37.184;2022-12-05T01:20:46;12.00;;;5.43;;
65533;SDS011;53640;55.838;37.184;2022-12-05T01:23:13;11.68;;;5.57;;
65533;SDS011;53640;55.838;37.184;2022-12-05T01:25:40;13.85;;;6.25;;
65533;SDS011;53640;55.838;37.184;2022-12-05T01:28:08;12.52;;;5.80;;
65533;SDS011;53640;55.838;37.184;2022-12-05T01:30:38;11.07;;;5.18;;
65533;SDS011;53640;55.838;37.184;2022-12-05T01:33:06;12.88;;;6.38;;
65533;SDS011;53640;55.838;37.184;2022-12-05T01:35:34;15.85;;;6.03;;
65533;SDS011;53640;55.838;37.184;2022-12-05T01:38:02;15.57;;;5.70;;
65533;SDS011;53640;55.838;37.184;2022-12-05T01:40:30;10.43;;;5.40;;
65533;SDS011;53640;55.838;37.184;2022-12-05T01:42:57;12.18;;;5.78;;
65533;SDS011;53640;55.838;37.184;2022-12-05T01:45:31;11.13;;;5.72;;
65533;SDS011;53640;55.838;37.184;2022-12-05T01:48:08;17.90;;;5.93;;
65533;SDS011;53640;55.838;37.184;2022-12-05T01:50:39;12.93;;;5.72;;
65533;SDS011;53640;55.838;37.184;2022-12-05T01:53:06;10.63;;;5.50;;
65533;SDS011;53640;55.838;37.184;2022-12-05T01:55:33;13.57;;;5.45;;
65533;SDS011;53640;55.838;37.184;2022-12-05T01:58:00;12.82;;;5.53;;
65533;SDS011;53640;55.838;37.184;2022-12-05T02:00:28;21.48;;;6.32;;
65533;SDS011;53640;55.838;37.184;2022-12-05T02:02:56;13.70;;;6.10;;
65533;SDS011;53640;55.838;37.184;2022-12-05T02:07:58;10.35;;;5.25;;
65533;SDS011;53640;55.838;37.184;2022-12-05T02:10:27;10.43;;;5.00;;
65533;SDS011;53640;55.838;37.184;2022-12-05T02:12:59;13.23;;;5.07;;
65533;SDS011;53640;55.838;37.184;2022-12-05T02:15:46;13.18;;;6.10;;
65533;SDS011;53640;55.838;37.184;2022-12-05T02:18:28;9.15;;;4.75;;
65533;SDS011;53640;55.838;37.184;2022-12-05T02:34:17;12.77;;;5.60;;
65533;SDS011;53640;55.838;37.184;2022-12-05T02:37:04;12.38;;;5.30;;
65533;SDS011;53640;55.838;37.184;2022-12-05T02:42:33;14.63;;;5.30;;
65533;SDS011;53640;55.838;37.184;2022-12-05T02:45:29;10.15;;;5.07;;
65533;SDS011;53640;55.838;37.184;2022-12-05T02:47:59;13.32;;;6.30;;
65533;SDS011;53640;55.838;37.184;2022-12-05T02:50:28;10.75;;;5.13;;
65533;SDS011;53640;55.838;37.184;2022-12-05T02:53:01;10.40;;;4.93;;
65533;SDS011;53640;55.838;37.184;2022-12-05T02:55:31;10.80;;;4.97;;
65533;SDS011;53640;55.838;37.184;2022-12-05T02:58:00;12.95;;;5.18;;
65533;SDS011;53640;55.838;37.184;2022-12-05T03:00:30;12.45;;;5.00;;
65533;SDS011;53640;55.838;37.184;2022-12-05T03:02:57;9.82;;;5.07;;
65533;SDS011;53640;55.838;37.184;2022-12-05T03:05:36;13.55;;;5.93;;
65533;SDS011;53640;55.838;37.184;2022-12-05T03:08:05;14.32;;;5.80;;
65533;SDS011;53640;55.838;37.184;2022-12-05T03:10:38;20.30;;;6.40;;
65533;SDS011;53640;55.838;37.184;2022-12-05T03:13:09;11.57;;;5.55;;
65533;SDS011;53640;55.838;37.184;2022-12-05T03:15:43;13.52;;;5.55;;
65533;SDS011;53640;55.838;37.184;2022-12-05T03:23:34;11.85;;;5.03;;
65533;SDS011;53640;55.838;37.184;2022-12-05T03:26:10;10.95;;;5.20;;
65533;SDS011;53640;55.838;37.184;2022-12-05T03:32:06;10.52;;;5.22;;
65533;SDS011;53640;55.838;37.184;2022-12-05T03:37:26;12.80;;;5.88;;
65533;SDS011;53640;55.838;37.184;2022-12-05T03:40:11;14.03;;;6.10;;
65533;SDS011;53640;55.838;37.184;2022-12-05T03:42:41;14.38;;;5.72;;
65533;SDS011;53640;55.838;37.184;2022-12-05T03:45:30;11.57;;;5.25;;
65533;SDS011;53640;55.838;37.184;2022-12-05T03:50:41;13.68;;;5.97;;
65533;SDS011;53640;55.838;37.184;2022-12-05T03:53:14;11.32;;;5.00;;
65533;SDS011;53640;55.838;37.184;2022-12-05T03:59:07;10.98;;;5.07;;
65533;SDS011;53640;55.838;37.184;2022-12-05T04:01:42;10.40;;;4.78;;
65533;SDS011;53640;55.838;37.184;2022-12-05T04:04:14;10.05;;;4.55;;
65533;SDS011;53640;55.838;37.184;2022-12-05T04:06:46;12.48;;;5.05;;
65533;SDS011;53640;55.838;37.184;2022-12-05T04:09:17;10.68;;;4.85;;
65533;SDS011;53640;55.838;37.184;2022-12-05T04:11:56;8.52;;;4.32;;
65533;SDS011;53640;55.838;37.184;2022-12-05T04:14:39;12.05;;;5.68;;
65533;SDS011;53640;55.838;37.184;2022-12-05T04:20:16;8.40;;;4.85;;
65533;SDS011;53640;55.838;37.184;2022-12-05T04:23:04;7.85;;;4.50;;
65533;SDS011;53640;55.838;37.184;2022-12-05T04:26:17;10.35;;;4.53;;
65533;SDS011;53640;55.838;37.184;2022-12-05T04:28:46;17.55;;;5.20;;
65533;SDS011;53640;55.838;37.184;2022-12-05T04:31:18;12.23;;;4.85;;
65533;SDS011;53640;55.838;37.184;2022-12-05T04:33:58;7.82;;;4.30;;
65533;SDS011;53640;55.838;37.184;2022-12-05T04:36:53;14.18;;;5.88;;
65533;SDS011;53640;55.838;37.184;2022-12-05T04:39:26;11.90;;;5.15;;
65533;SDS011;53640;55.838;37.184;2022-12-05T04:42:13;9.95;;;4.55;;
65533;SDS011;53640;55.838;37.184;2022-12-05T04:44:45;11.57;;;5.13;;
65533;SDS011;53640;55.838;37.184;2022-12-05T04:47:23;11.25;;;4.93;;
65533;SDS011;53640;55.838;37.184;2022-12-05T04:49:55;9.98;;;5.00;;
65533;SDS011;53640;55.838;37.184;2022-12-05T04:52:22;11.38;;;4.25;;
65533;SDS011;53640;55.838;37.184;2022-12-05T04:55:01;11.65;;;5.05;;
65533;SDS011;53640;55.838;37.184;2022-12-05T04:57:49;10.10;;;4.82;;
65533;SDS011;53640;55.838;37.184;2022-12-05T05:00:26;9.65;;;4.07;;
65533;SDS011;53640;55.838;37.184;2022-12-05T05:05:25;9.43;;;5.20;;
65533;SDS011;53640;55.838;37.184;2022-12-05T05:07:53;9.98;;;4.75;;
65533;SDS011;53640;55.838;37.184;2022-12-05T05:10:24;11.77;;;5.22;;
65533;SDS011;53640;55.838;37.184;2022-12-05T05:13:04;10.80;;;4.90;;
65533;SDS011;53640;55.838;37.184;2022-12-05T05:15:30;6.75;;;4.25;;
65533;SDS011;53640;55.838;37.184;2022-12-05T05:17:57;11.68;;;4.65;;
65533;SDS011;53640;55.838;37.184;2022-12-05T05:20:23;9.73;;;4.70;;
65533;SDS011;53640;55.838;37.184;2022-12-05T05:22:50;10.45;;;4.15;;
65533;SDS011;53640;55.838;37.184;2022-12-05T05:25:17;10.90;;;4.70;;
65533;SDS011;53640;55.838;37.184;2022-12-05T05:27:51;9.85;;;4.95;;
65533;SDS011;53640;55.838;37.184;2022-12-05T05:30:20;10.48;;;4.60;;
65533;SDS011;53640;55.838;37.184;2022-12-05T05:32:48;12.63;;;5.28;;
65533;SDS011;53640;55.838;37.184;2022-12-05T05:35:17;13.73;;;5.38;;
65533;SDS011;53640;55.838;37.184;2022-12-05T05:37:44;8.07;;;4.32;;
65533;SDS011;53640;55.838;37.184;2022-12-05T05:40:11;8.85;;;4.82;;
65533;SDS011;53640;55.838;37.184;2022-12-05T05:42:46;10.30;;;4.75;;
65533;SDS011;53640;55.838;37.184;2022-12-05T05:45:13;11.65;;;5.85;;
65533;SDS011;53640;55.838;37.184;2022-12-05T05:47:41;10.80;;;5.15;;
65533;SDS011;53640;55.838;37.184;2022-12-05T05:50:08;8.82;;;4.75;;
65533;SDS011;53640;55.838;37.184;2022-12-05T05:52:35;12.38;;;5.80;;
65533;SDS011;53640;55.838;37.184;2022-12-05T05:55:03;12.07;;;5.15;;
65533;SDS011;53640;55.838;37.184;2022-12-05T05:57:31;11.02;;;4.45;;
65533;SDS011;53640;55.838;37.184;2022-12-05T05:59:57;8.57;;;4.72;;
65533;SDS011;53640;55.838;37.184;2022-12-05T06:02:23;9.30;;;5.07;;
65533;SDS011;53640;55.838;37.184;2022-12-05T06:04:50;8.38;;;4.20;;
65533;SDS011;53640;55.838;37.184;2022-12-05T06:07:16;8.55;;;4.68;;
65533;SDS011;53640;55.838;37.184;2022-12-05T06:09:42;9.70;;;4.80;;
65533;SDS011;53640;55.838;37.184;2022-12-05T06:12:09;9.00;;;4.28;;
65533;SDS011;53640;55.838;37.184;2022-12-05T06:14:35;8.85;;;4.85;;
65533;SDS011;53640;55.838;37.184;2022-12-05T06:17:02;7.10;;;4.20;;
65533;SDS011;53640;55.838;37.184;2022-12-05T06:19:28;9.23;;;4.78;;
65533;SDS011;53640;55.838;37.184;2022-12-05T06:21:54;8.95;;;4.43;;
65533;SDS011;53640;55.838;37.184;2022-12-05T06:24:21;11.35;;;4.68;;
65533;SDS011;53640;55.838;37.184;2022-12-05T06:26:47;11.15;;;4.82;;
65533;SDS011;53640;55.838;37.184;2022-12-05T06:29:13;13.07;;;4.97;;
65533;SDS011;53640;55.838;37.184;2022-12-05T06:31:40;8.07;;;3.88;;
65533;SDS011;53640;55.838;37.184;2022-12-05T06:34:07;11.23;;;4.47;;
65533;SDS011;53640;55.838;37.184;2022-12-05T06:36:33;13.55;;;4.43;;
65533;SDS011;53640;55.838;37.184;2022-12-05T06:38:59;10.85;;;4.30;;
65533;SDS011;53640;55.838;37.184;2022-12-05T06:41:26;7.90;;;4.53;;
65533;SDS011;53640;55.838;37.184;2022-12-05T06:43:53;9.80;;;4.00;;
65533;SDS011;53640;55.838;37.184;2022-12-05T06:46:21;11.88;;;4.75;;
65533;SDS011;53640;55.838;37.184;2022-12-05T06:48:48;13.20;;;4.75;;
65533;SDS011;53640;55.838;37.184;2022-12-05T06:51:18;9.82;;;4.82;;
65533;SDS011;53640;55.838;37.184;2022-12-05T06:53:44;6.72;;;4.05;;
65533;SDS011;53640;55.838;37.184;2022-12-05T06:56:12;14.02;;;5.05;;
65533;SDS011;53640;55.838;37.184;2022-12-05T06:58:41;9.95;;;4.85;;
65533;SDS011;53640;55.838;37.184;2022-12-05T07:01:12;10.02;;;4.43;;
65533;SDS011;53640;55.838;37.184;2022-12-05T07:03:58;13.77;;;4.20;;
65533;SDS011;53640;55.838;37.184;2022-12-05T07:06:25;9.43;;;4.40;;
65533;SDS011;53640;55.838;37.184;2022-12-05T07:08:52;9.52;;;4.55;;
65533;SDS011;53640;55.838;37.184;2022-12-05T07:11:19;10.95;;;4.97;;
65533;SDS011;53640;55.838;37.184;2022-12-05T07:13:45;6.55;;;3.22;;
65533;SDS011;53640;55.838;37.184;2022-12-05T07:16:11;9.65;;;3.83;;
65533;SDS011;53640;55.838;37.184;2022-12-05T07:18:38;10.40;;;5.07;;
65533;SDS011;53640;55.838;37.184;2022-12-05T07:21:05;16.63;;;5.07;;
65533;SDS011;53640;55.838;37.184;2022-12-05T07:23:33;9.95;;;4.20;;
65533;SDS011;53640;55.838;37.184;2022-12-05T07:26:03;9.38;;;5.07;;
65533;SDS011;53640;55.838;37.184;2022-12-05T07:28:31;11.45;;;5.20;;
65533;SDS011;53640;55.838;37.184;2022-12-05T07:31:00;9.27;;;4.68;;
65533;SDS011;53640;55.838;37.184;2022-12-05T07:33:28;8.70;;;4.47;;
65533;SDS011;53640;55.838;37.184;2022-12-05T07:36:00;8.60;;;4.38;;
65533;SDS011;53640;55.838;37.184;2022-12-05T07:38:32;9.60;;;4.50;;
65533;SDS011;53640;55.838;37.184;2022-12-05T07:40:58;8.30;;;3.55;;
65533;SDS011;53640;55.838;37.184;2022-12-05T07:43:24;11.23;;;5.00;;
65533;SDS011;53640;55.838;37.184;2022-12-05T07:45:51;6.78;;;3.65;;
65533;SDS011;53640;55.838;37.184;2022-12-05T07:48:17;14.75;;;5.85;;
65533;SDS011;53640;55.838;37.184;2022-12-05T07:50:44;12.48;;;5.32;;
65533;SDS011;53640;55.838;37.184;2022-12-05T07:53:10;9.80;;;4.65;;
65533;SDS011;53640;55.838;37.184;2022-12-05T07:55:36;9.02;;;5.13;;
65533;SDS011;53640;55.838;37.184;2022-12-05T07:58:03;6.88;;;4.13;;
65533;SDS011;53640;55.838;37.184;2022-12-05T08:00:30;11.13;;;4.72;;
65533;SDS011;53640;55.838;37.184;2022-12-05T08:02:56;8.32;;;4.63;;
65533;SDS011;53640;55.838;37.184;2022-12-05T08:05:22;8.57;;;3.95;;
65533;SDS011;53640;55.838;37.184;2022-12-05T08:07:49;12.82;;;5.28;;
65533;SDS011;53640;55.838;37.184;2022-12-05T08:10:15;7.63;;;4.10;;
65533;SDS011;53640;55.838;37.184;2022-12-05T08:12:41;9.68;;;5.00;;
65533;SDS011;53640;55.838;37.184;2022-12-05T08:15:08;9.85;;;4.68;;
65533;SDS011;53640;55.838;37.184;2022-12-05T08:17:35;9.65;;;4.47;;
65533;SDS011;53640;55.838;37.184;2022-12-05T08:20:02;8.80;;;4.15;;
65533;SDS011;53640;55.838;37.184;2022-12-05T08:22:29;7.53;;;3.70;;
65533;SDS011;53640;55.838;37.184;2022-12-05T08:24:55;8.73;;;4.18;;
65533;SDS011;53640;55.838;37.184;2022-12-05T08:27:22;10.18;;;4.72;;
65533;SDS011;53640;55.838;37.184;2022-12-05T08:29:48;8.05;;;3.75;;
65533;SDS011;53640;55.838;37.184;2022-12-05T08:32:14;8.30;;;4.18;;
65533;SDS011;53640;55.838;37.184;2022-12-05T08:34:41;9.23;;;4.38;;
65533;SDS011;53640;55.838;37.184;2022-12-05T08:37:07;14.10;;;4.97;;
65533;SDS011;53640;55.838;37.184;2022-12-05T08:39:33;15.52;;;5.43;;
65533;SDS011;53640;55.838;37.184;2022-12-05T08:42:01;11.63;;;5.55;;
65533;SDS011;53640;55.838;37.184;2022-12-05T08:44:27;10.07;;;4.57;;
65533;SDS011;53640;55.838;37.184;2022-12-05T08:46:54;13.65;;;4.55;;
65533;SDS011;53640;55.838;37.184;2022-12-05T08:49:20;9.18;;;4.55;;
65533;SDS011;53640;55.838;37.184;2022-12-05T08:51:46;12.52;;;5.45;;
65533;SDS011;53640;55.838;37.184;2022-12-05T08:54:13;9.63;;;4.70;;
65533;SDS011;53640;55.838;37.184;2022-12-05T08:56:39;11.05;;;5.78;;
65533;SDS011;53640;55.838;37.184;2022-12-05T08:59:06;11.82;;;4.65;;
65533;SDS011;53640;55.838;37.184;2022-12-05T09:01:33;10.77;;;5.43;;
65533;SDS011;53640;55.838;37.184;2022-12-05T09:04:03;10.93;;;4.95;;
65533;SDS011;53640;55.838;37.184;2022-12-05T09:06:31;13.75;;;3.97;;
65533;SDS011;53640;55.838;37.184;2022-12-05T09:08:58;11.43;;;5.00;;
65533;SDS011;53640;55.838;37.184;2022-12-05T09:11:29;17.02;;;5.75;;
65533;SDS011;53640;55.838;37.184;2022-12-05T09:14:00;8.25;;;4.50;;
65533;SDS011;53640;55.838;37.184;2022-12-05T09:16:31;10.20;;;4.10;;
65533;SDS011;53640;55.838;37.184;2022-12-05T09:19:00;15.85;;;5.00;;
65533;SDS011;53640;55.838;37.184;2022-12-05T09:21:28;10.68;;;4.90;;
65533;SDS011;53640;55.838;37.184;2022-12-05T09:23:58;9.57;;;5.50;;
65533;SDS011;53640;55.838;37.184;2022-12-05T09:26:26;9.13;;;4.32;;
65533;SDS011;53640;55.838;37.184;2022-12-05T09:28:53;9.68;;;5.53;;
65533;SDS011;53640;55.838;37.184;2022-12-05T09:31:21;12.23;;;5.60;;
65533;SDS011;53640;55.838;37.184;2022-12-05T09:33:50;9.00;;;4.13;;
65533;SDS011;53640;55.838;37.184;2022-12-05T09:36:35;7.32;;;4.10;;
65533;SDS011;53640;55.838;37.184;2022-12-05T09:39:07;8.10;;;4.72;;
65533;SDS011;53640;55.838;37.184;2022-12-05T09:44:44;6.78;;;4.03;;
65533;SDS011;53640;55.838;37.184;2022-12-05T09:50:00;9.73;;;4.72;;
65533;SDS011;53640;55.838;37.184;2022-12-05T09:52:45;9.30;;;4.25;;
65533;SDS011;53640;55.838;37.184;2022-12-05T09:55:28;7.15;;;4.22;;
65533;SDS011;53640;55.838;37.184;2022-12-05T09:58:02;15.23;;;4.28;;
65533;SDS011;53640;55.838;37.184;2022-12-05T10:00:37;7.88;;;4.72;;
65533;SDS011;53640;55.838;37.184;2022-12-05T10:05:51;8.15;;;3.88;;
65533;SDS011;53640;55.838;37.184;2022-12-05T10:14:07;6.07;;;3.97;;
65533;SDS011;53640;55.838;37.184;2022-12-05T10:16:52;10.02;;;4.10;;
65533;SDS011;53640;55.838;37.184;2022-12-05T10:27:09;9.48;;;4.53;;
65533;SDS011;53640;55.838;37.184;2022-12-05T10:29:51;6.72;;;3.92;;
65533;SDS011;53640;55.838;37.184;2022-12-05T10:32:26;10.32;;;4.90;;
65533;SDS011;53640;55.838;37.184;2022-12-05T10:35:01;9.05;;;3.63;;
65533;SDS011;53640;55.838;37.184;2022-12-05T10:37:40;7.10;;;3.95;;
65533;SDS011;53640;55.838;37.184;2022-12-05T10:40:11;10.25;;;4.60;;
65533;SDS011;53640;55.838;37.184;2022-12-05T10:42:39;13.77;;;4.82;;
65533;SDS011;53640;55.838;37.184;2022-12-05T10:45:06;9.88;;;4.50;;
65533;SDS011;53640;55.838;37.184;2022-12-05T10:47:39;13.63;;;4.65;;
65533;SDS011;53640;55.838;37.184;2022-12-05T10:50:12;7.72;;;3.58;;
65533;SDS011;53640;55.838;37.184;2022-12-05T10:52:57;7.85;;;4.07;;
65533;SDS011;53640;55.838;37.184;2022-12-05T10:55:36;8.35;;;3.42;;
65533;SDS011;53640;55.838;37.184;2022-12-05T10:58:10;6.57;;;3.45;;
65533;SDS011;53640;55.838;37.184;2022-12-05T11:00:40;6.43;;;3.60;;
65533;SDS011;53640;55.838;37.184;2022-12-05T11:03:22;8.32;;;3.88;;
65533;SDS011;53640;55.838;37.184;2022-12-05T11:05:56;9.13;;;4.22;;
65533;SDS011;53640;55.838;37.184;2022-12-05T11:08:26;6.82;;;3.80;;
65533;SDS011;53640;55.838;37.184;2022-12-05T11:13:42;7.70;;;3.85;;
65533;SDS011;53640;55.838;37.184;2022-12-05T11:16:32;10.35;;;4.60;;
65533;SDS011;53640;55.838;37.184;2022-12-05T11:21:54;10.60;;;3.60;;
65533;SDS011;53640;55.838;37.184;2022-12-05T11:24:26;6.07;;;3.10;;
65533;SDS011;53640;55.838;37.184;2022-12-05T11:26:55;6.85;;;3.88;;
65533;SDS011;53640;55.838;37.184;2022-12-05T11:29:30;7.60;;;3.63;;
65533;SDS011;53640;55.838;37.184;2022-12-05T11:31:58;6.15;;;2.95;;
65533;SDS011;53640;55.838;37.184;2022-12-05T11:34:30;7.75;;;3.50;;
65533;SDS011;53640;55.838;37.184;2022-12-05T11:37:14;6.53;;;2.90;;
65533;SDS011;53640;55.838;37.184;2022-12-05T11:39:47;7.43;;;3.58;;
65533;SDS011;53640;55.838;37.184;2022-12-05T11:42:22;6.55;;;2.95;;
65533;SDS011;53640;55.838;37.184;2022-12-05T11:45:00;6.53;;;3.38;;
65533;SDS011;53640;55.838;37.184;2022-12-05T11:53:29;4.07;;;2.50;;
65533;SDS011;53640;55.838;37.184;2022-12-05T11:55:58;7.38;;;3.50;;
65533;SDS011;53640;55.838;37.184;2022-12-05T11:58:32;6.20;;;3.30;;
65533;SDS011;53640;55.838;37.184;2022-12-05T12:07:27;4.15;;;2.53;;
65533;SDS011;53640;55.838;37.184;2022-12-05T12:18:23;5.28;;;2.70;;
65533;SDS011;53640;55.838;37.184;2022-12-05T12:23:37;5.05;;;2.65;;
65533;SDS011;53640;55.838;37.184;2022-12-05T12:26:13;7.93;;;3.20;;
65533;SDS011;53640;55.838;37.184;2022-12-05T12:29:07;8.25;;;3.30;;
65533;SDS011;53640;55.838;37.184;2022-12-05T12:39:51;5.63;;;2.67;;
65533;SDS011;53640;55.838;37.184;2022-12-05T12:56:02;4.88;;;2.60;;
65533;SDS011;53640;55.838;37.184;2022-12-05T13:01:51;5.57;;;2.90;;
65533;SDS011;53640;55.838;37.184;2022-12-05T13:07:21;5.43;;;3.03;;
65533;SDS011;53640;55.838;37.184;2022-12-05T13:09:57;4.70;;;2.70;;
65533;SDS011;53640;55.838;37.184;2022-12-05T13:12:30;8.88;;;3.60;;
65533;SDS011;53640;55.838;37.184;2022-12-05T13:15:01;8.63;;;2.70;;
65533;SDS011;53640;55.838;37.184;2022-12-05T13:17:32;13.23;;;3.67;;
65533;SDS011;53640;55.838;37.184;2022-12-05T13:19:59;8.60;;;3.53;;
65533;SDS011;53640;55.838;37.184;2022-12-05T13:22:26;6.70;;;3.20;;
65533;SDS011;53640;55.838;37.184;2022-12-05T13:24:53;10.35;;;3.65;;
65533;SDS011;53640;55.838;37.184;2022-12-05T13:27:21;8.15;;;4.20;;
65533;SDS011;53640;55.838;37.184;2022-12-05T13:29:51;11.30;;;4.60;;
65533;SDS011;53640;55.838;37.184;2022-12-05T13:32:37;9.75;;;4.07;;
65533;SDS011;53640;55.838;37.184;2022-12-05T13:37:32;7.85;;;4.18;;
65533;SDS011;53640;55.838;37.184;2022-12-05T13:40:20;11.13;;;4.18;;
65533;SDS011;53640;55.838;37.184;2022-12-05T13:43:12;12.57;;;4.65;;
65533;SDS011;53640;55.838;37.184;2022-12-05T13:45:53;10.25;;;4.00;;
65533;SDS011;53640;55.838;37.184;2022-12-05T13:48:36;8.68;;;3.75;;
65533;SDS011;53640;55.838;37.184;2022-12-05T13:51:07;11.13;;;3.83;;
65533;SDS011;53640;55.838;37.184;2022-12-05T13:58:49;7.68;;;3.65;;
65533;SDS011;53640;55.838;37.184;2022-12-05T14:04:46;8.50;;;3.72;;
65533;SDS011;53640;55.838;37.184;2022-12-05T14:10:06;7.85;;;3.30;;
65533;SDS011;53640;55.838;37.184;2022-12-05T14:15:29;5.22;;;3.38;;
65533;SDS011;53640;55.838;37.184;2022-12-05T14:17:59;10.95;;;3.85;;
65533;SDS011;53640;55.838;37.184;2022-12-05T14:20:42;10.00;;;3.17;;
65533;SDS011;53640;55.838;37.184;2022-12-05T14:23:30;10.27;;;3.78;;
65533;SDS011;53640;55.838;37.184;2022-12-05T14:26:05;8.85;;;3.95;;
65533;SDS011;53640;55.838;37.184;2022-12-05T14:34:32;11.20;;;3.70;;
65533;SDS011;53640;55.838;37.184;2022-12-05T14:42:18;5.82;;;3.25;;
65533;SDS011;53640;55.838;37.184;2022-12-05T14:44:57;6.40;;;3.60;;
65533;SDS011;53640;55.838;37.184;2022-12-05T14:47:28;5.50;;;3.15;;
65533;SDS011;53640;55.838;37.184;2022-12-05T14:56:09;12.55;;;3.15;;
65533;SDS011;53640;55.838;37.184;2022-12-05T15:01:46;8.32;;;3.67;;
65533;SDS011;53640;55.838;37.184;2022-12-05T15:04:18;9.40;;;3.90;;
65533;SDS011;53640;55.838;37.184;2022-12-05T15:12:15;12.00;;;3.85;;
65533;SDS011;53640;55.838;37.184;2022-12-05T15:14:48;9.15;;;4.32;;
65533;SDS011;53640;55.838;37.184;2022-12-05T15:17:25;12.00;;;5.03;;
65533;SDS011;53640;55.838;37.184;2022-12-05T15:19:57;12.88;;;5.65;;
65533;SDS011;53640;55.838;37.184;2022-12-05T15:22:31;12.07;;;4.45;;
65533;SDS011;53640;55.838;37.184;2022-12-05T15:25:13;11.88;;;4.18;;
65533;SDS011;53640;55.838;37.184;2022-12-05T15:27:40;7.15;;;3.25;;
65533;SDS011;53640;55.838;37.184;2022-12-05T15:30:19;5.40;;;3.10;;
65533;SDS011;53640;55.838;37.184;2022-12-05T15:32:46;12.02;;;4.88;;
65533;SDS011;53640;55.838;37.184;2022-12-05T15:35:12;6.63;;;3.50;;
65533;SDS011;53640;55.838;37.184;2022-12-05T15:40:15;10.98;;;4.18;;
65533;SDS011;53640;55.838;37.184;2022-12-05T15:42:48;7.55;;;3.33;;
65533;SDS011;53640;55.838;37.184;2022-12-05T15:45:24;10.30;;;4.70;;
65533;SDS011;53640;55.838;37.184;2022-12-05T15:47:56;7.55;;;4.25;;
65533;SDS011;53640;55.838;37.184;2022-12-05T15:50:39;8.77;;;4.15;;
65533;SDS011;53640;55.838;37.184;2022-12-05T15:56:03;12.48;;;4.07;;
65533;SDS011;53640;55.838;37.184;2022-12-05T15:58:42;9.27;;;4.32;;
65533;SDS011;53640;55.838;37.184;2022-12-05T16:03:47;13.05;;;4.43;;
65533;SDS011;53640;55.838;37.184;2022-12-05T16:08:49;10.73;;;4.53;;
65533;SDS011;53640;55.838;37.184;2022-12-05T16:11:16;11.60;;;4.60;;
65533;SDS011;53640;55.838;37.184;2022-12-05T16:13:48;8.95;;;4.63;;
65533;SDS011;53640;55.838;37.184;2022-12-05T16:16:20;13.88;;;4.45;;
65533;SDS011;53640;55.838;37.184;2022-12-05T16:18:53;8.48;;;4.57;;
65533;SDS011;53640;55.838;37.184;2022-12-05T16:21:26;15.70;;;4.10;;
65533;SDS011;53640;55.838;37.184;2022-12-05T16:24:12;9.80;;;4.28;;
65533;SDS011;53640;55.838;37.184;2022-12-05T16:26:57;10.65;;;4.30;;
65533;SDS011;53640;55.838;37.184;2022-12-05T16:29:31;8.43;;;3.80;;
65533;SDS011;53640;55.838;37.184;2022-12-05T16:32:17;6.50;;;3.80;;
65533;SDS011;53640;55.838;37.184;2022-12-05T16:34:48;8.52;;;4.07;;
65533;SDS011;53640;55.838;37.184;2022-12-05T16:37:17;8.77;;;4.38;;
65533;SDS011;53640;55.838;37.184;2022-12-05T16:39:50;9.63;;;3.60;;
65533;SDS011;53640;55.838;37.184;2022-12-05T16:42:22;7.60;;;3.75;;
65533;SDS011;53640;55.838;37.184;2022-12-05T16:44:57;11.88;;;4.18;;
65533;SDS011;53640;55.838;37.184;2022-12-05T16:48:14;9.57;;;3.58;;
65533;SDS011;53640;55.838;37.184;2022-12-05T16:50:32;7.18;;;3.55;;
65533;SDS011;53640;55.838;37.184;2022-12-05T16:53:33;9.75;;;4.32;;
65533;SDS011;53640;55.838;37.184;2022-12-05T16:55:54;9.52;;;3.53;;
65533;SDS011;53640;55.838;37.184;2022-12-05T16:58:23;8.52;;;4.38;;
65533;SDS011;53640;55.838;37.184;2022-12-05T17:00:51;9.48;;;4.07;;
65533;SDS011;53640;55.838;37.184;2022-12-05T17:03:25;10.00;;;3.92;;
65533;SDS011;53640;55.838;37.184;2022-12-05T17:05:53;10.82;;;4.28;;
65533;SDS011;53640;55.838;37.184;2022-12-05T17:08:21;8.60;;;4.32;;
65533;SDS011;53640;55.838;37.184;2022-12-05T17:10:47;7.65;;;4.00;;
65533;SDS011;53640;55.838;37.184;2022-12-05T17:13:14;11.55;;;4.05;;
65533;SDS011;53640;55.838;37.184;2022-12-05T17:15:41;8.25;;;4.07;;
65533;SDS011;53640;55.838;37.184;2022-12-05T17:18:11;8.35;;;3.92;;
65533;SDS011;53640;55.838;37.184;2022-12-05T17:20:41;10.65;;;4.53;;
65533;SDS011;53640;55.838;37.184;2022-12-05T17:23:11;8.98;;;4.00;;
65533;SDS011;53640;55.838;37.184;2022-12-05T17:25:40;6.07;;;3.60;;
65533;SDS011;53640;55.838;37.184;2022-12-05T17:28:09;10.77;;;3.53;;
65533;SDS011;53640;55.838;37.184;2022-12-05T17:30:38;4.93;;;2.90;;
65533;SDS011;53640;55.838;37.184;2022-12-05T17:33:05;7.05;;;3.42;;
65533;SDS011;53640;55.838;37.184;2022-12-05T17:35:35;11.52;;;3.97;;
65533;SDS011;53640;55.838;37.184;2022-12-05T17:38:03;6.18;;;3.78;;
65533;SDS011;53640;55.838;37.184;2022-12-05T17:40:30;7.93;;;3.70;;
65533;SDS011;53640;55.838;37.184;2022-12-05T17:42:57;6.60;;;3.10;;
65533;SDS011;53640;55.838;37.184;2022-12-05T17:45:24;9.70;;;4.35;;
65533;SDS011;53640;55.838;37.184;2022-12-05T17:47:51;8.18;;;3.78;;
65533;SDS011;53640;55.838;37.184;2022-12-05T17:50:19;6.45;;;3.58;;
65533;SDS011;53640;55.838;37.184;2022-12-05T17:52:47;11.77;;;4.45;;